sensor_id;sensor_type;location;lat;lon;timestamp;P1;durP1;ratioP1;P2;durP2;ratioP2
20880;SDS011;10600;53.096;8.802;2023-04-24T00:00:26;3.35;;;2.55;;
20880;SDS011;10600;53.096;8.802;2023-04-24T00:01:27;3.80;;;2.33;;
20880;SDS011;10600;53.096;8.802;2023-04-24T00:02:29;3.28;;;2.67;;
20880;SDS011;10600;53.096;8.802;2023-04-24T00:03:30;3.35;;;2.55;;
20880;SDS011;10600;53.096;8.802;2023-04-24T00:04:31;2.92;;;2.60;;
20880;SDS011;10600;53.096;8.802;2023-04-24T00:05:31;3.78;;;2.63;;
20880;SDS011;10600;53.096;8.802;2023-04-24T00:06:32;4.28;;;2.40;;
20880;SDS011;10600;53.096;8.802;2023-04-24T00:07:33;2.83;;;2.42;;
20880;SDS011;10600;53.096;8.802;2023-04-24T00:08:35;3.78;;;2.70;;
20880;SDS011;10600;53.096;8.802;2023-04-24T00:09:36;3.58;;;2.50;;
20880;SDS011;10600;53.096;8.802;2023-04-24T00:10:36;3.60;;;2.50;;
20880;SDS011;10600;53.096;8.802;2023-04-24T00:11:37;3.08;;;2.35;;
20880;SDS011;10600;53.096;8.802;2023-04-24T00:12:38;3.13;;;2.40;;
20880;SDS011;10600;53.096;8.802;2023-04-24T00:13:39;3.65;;;2.42;;
20880;SDS011;10600;53.096;8.802;2023-04-24T00:14:39;2.45;;;2.25;;
20880;SDS011;10600;53.096;8.802;2023-04-24T00:15:40;4.55;;;2.50;;
20880;SDS011;10600;53.096;8.802;2023-04-24T00:16:41;3.50;;;2.60;;
20880;SDS011;10600;53.096;8.802;2023-04-24T00:17:41;3.67;;;2.55;;
20880;SDS011;10600;53.096;8.802;2023-04-24T00:18:42;2.60;;;2.40;;
20880;SDS011;10600;53.096;8.802;2023-04-24T00:19:42;4.28;;;2.42;;
20880;SDS011;10600;53.096;8.802;2023-04-24T00:20:43;2.90;;;2.60;;
20880;SDS011;10600;53.096;8.802;2023-04-24T00:21:44;5.10;;;3.30;;
20880;SDS011;10600;53.096;8.802;2023-04-24T00:22:45;4.15;;;2.40;;
20880;SDS011;10600;53.096;8.802;2023-04-24T00:23:45;3.30;;;3.00;;
20880;SDS011;10600;53.096;8.802;2023-04-24T00:24:46;3.17;;;2.88;;
20880;SDS011;10600;53.096;8.802;2023-04-24T00:25:46;3.72;;;3.05;;
20880;SDS011;10600;53.096;8.802;2023-04-24T00:26:47;3.45;;;2.90;;
20880;SDS011;10600;53.096;8.802;2023-04-24T00:27:48;4.32;;;3.17;;
20880;SDS011;10600;53.096;8.802;2023-04-24T00:28:48;3.35;;;3.05;;
20880;SDS011;10600;53.096;8.802;2023-04-24T00:29:49;3.55;;;3.05;;
20880;SDS011;10600;53.096;8.802;2023-04-24T00:30:50;3.38;;;2.90;;
20880;SDS011;10600;53.096;8.802;2023-04-24T00:31:50;4.45;;;3.15;;
20880;SDS011;10600;53.096;8.802;2023-04-24T00:32:51;3.63;;;2.92;;
20880;SDS011;10600;53.096;8.802;2023-04-24T00:33:52;3.60;;;3.20;;
20880;SDS011;10600;53.096;8.802;2023-04-24T00:34:52;3.70;;;3.33;;
20880;SDS011;10600;53.096;8.802;2023-04-24T00:35:53;7.32;;;3.30;;
20880;SDS011;10600;53.096;8.802;2023-04-24T00:36:54;5.65;;;3.60;;
20880;SDS011;10600;53.096;8.802;2023-04-24T00:37:54;3.78;;;3.47;;
20880;SDS011;10600;53.096;8.802;2023-04-24T00:38:55;5.22;;;3.17;;
20880;SDS011;10600;53.096;8.802;2023-04-24T00:39:56;4.55;;;3.22;;
20880;SDS011;10600;53.096;8.802;2023-04-24T00:40:56;3.78;;;2.90;;
20880;SDS011;10600;53.096;8.802;2023-04-24T00:41:57;3.00;;;2.70;;
20880;SDS011;10600;53.096;8.802;2023-04-24T00:42:58;3.00;;;2.28;;
20880;SDS011;10600;53.096;8.802;2023-04-24T00:43:58;4.72;;;2.35;;
20880;SDS011;10600;53.096;8.802;2023-04-24T00:44:59;2.17;;;1.98;;
20880;SDS011;10600;53.096;8.802;2023-04-24T00:46:03;2.75;;;2.17;;
20880;SDS011;10600;53.096;8.802;2023-04-24T00:47:04;2.67;;;2.40;;
20880;SDS011;10600;53.096;8.802;2023-04-24T00:48:04;2.38;;;2.10;;
20880;SDS011;10600;53.096;8.802;2023-04-24T00:49:06;2.20;;;2.10;;
20880;SDS011;10600;53.096;8.802;2023-04-24T00:50:07;2.70;;;2.50;;
20880;SDS011;10600;53.096;8.802;2023-04-24T00:51:08;3.85;;;2.65;;
20880;SDS011;10600;53.096;8.802;2023-04-24T00:52:09;2.50;;;2.30;;
20880;SDS011;10600;53.096;8.802;2023-04-24T00:53:10;3.13;;;2.80;;
20880;SDS011;10600;53.096;8.802;2023-04-24T00:54:12;3.13;;;2.65;;
20880;SDS011;10600;53.096;8.802;2023-04-24T00:55:13;3.20;;;2.90;;
20880;SDS011;10600;53.096;8.802;2023-04-24T00:56:13;2.63;;;2.42;;
20880;SDS011;10600;53.096;8.802;2023-04-24T00:57:14;2.83;;;2.60;;
20880;SDS011;10600;53.096;8.802;2023-04-24T00:58:15;2.88;;;2.60;;
20880;SDS011;10600;53.096;8.802;2023-04-24T00:59:16;3.10;;;2.50;;
20880;SDS011;10600;53.096;8.802;2023-04-24T01:00:17;2.50;;;2.30;;
20880;SDS011;10600;53.096;8.802;2023-04-24T01:01:19;2.30;;;2.10;;
20880;SDS011;10600;53.096;8.802;2023-04-24T01:02:21;2.60;;;2.40;;
20880;SDS011;10600;53.096;8.802;2023-04-24T01:03:24;2.58;;;2.38;;
20880;SDS011;10600;53.096;8.802;2023-04-24T01:04:28;3.20;;;2.20;;
20880;SDS011;10600;53.096;8.802;2023-04-24T01:05:28;3.47;;;2.50;;
20880;SDS011;10600;53.096;8.802;2023-04-24T01:06:29;5.85;;;2.40;;
20880;SDS011;10600;53.096;8.802;2023-04-24T01:07:31;2.47;;;2.15;;
20880;SDS011;10600;53.096;8.802;2023-04-24T01:08:32;2.75;;;2.55;;
20880;SDS011;10600;53.096;8.802;2023-04-24T01:09:34;2.45;;;2.25;;
20880;SDS011;10600;53.096;8.802;2023-04-24T01:10:35;2.60;;;2.20;;
20880;SDS011;10600;53.096;8.802;2023-04-24T01:11:38;2.85;;;2.60;;
20880;SDS011;10600;53.096;8.802;2023-04-24T01:12:41;2.38;;;2.25;;
20880;SDS011;10600;53.096;8.802;2023-04-24T01:13:42;2.38;;;2.17;;
20880;SDS011;10600;53.096;8.802;2023-04-24T01:14:43;2.38;;;2.17;;
20880;SDS011;10600;53.096;8.802;2023-04-24T01:15:44;3.22;;;2.47;;
20880;SDS011;10600;53.096;8.802;2023-04-24T01:16:45;2.95;;;2.50;;
20880;SDS011;10600;53.096;8.802;2023-04-24T01:17:45;3.25;;;2.92;;
20880;SDS011;10600;53.096;8.802;2023-04-24T01:18:46;4.70;;;2.58;;
20880;SDS011;10600;53.096;8.802;2023-04-24T01:19:47;3.05;;;2.75;;
20880;SDS011;10600;53.096;8.802;2023-04-24T01:20:48;3.15;;;2.45;;
20880;SDS011;10600;53.096;8.802;2023-04-24T01:21:53;2.60;;;2.40;;
20880;SDS011;10600;53.096;8.802;2023-04-24T01:22:56;2.72;;;2.50;;
20880;SDS011;10600;53.096;8.802;2023-04-24T01:23:57;2.80;;;2.58;;
20880;SDS011;10600;53.096;8.802;2023-04-24T01:24:58;3.58;;;2.70;;
20880;SDS011;10600;53.096;8.802;2023-04-24T01:25:58;2.70;;;2.50;;
20880;SDS011;10600;53.096;8.802;2023-04-24T01:26:59;4.03;;;2.72;;
20880;SDS011;10600;53.096;8.802;2023-04-24T01:28:01;2.70;;;2.50;;
20880;SDS011;10600;53.096;8.802;2023-04-24T01:29:01;3.25;;;2.70;;
20880;SDS011;10600;53.096;8.802;2023-04-24T01:30:02;2.75;;;2.55;;
20880;SDS011;10600;53.096;8.802;2023-04-24T01:31:04;2.90;;;2.70;;
20880;SDS011;10600;53.096;8.802;2023-04-24T01:32:05;2.88;;;2.67;;
20880;SDS011;10600;53.096;8.802;2023-04-24T01:33:06;3.20;;;2.75;;
20880;SDS011;10600;53.096;8.802;2023-04-24T01:34:06;4.35;;;2.60;;
20880;SDS011;10600;53.096;8.802;2023-04-24T01:35:08;3.17;;;2.88;;
20880;SDS011;10600;53.096;8.802;2023-04-24T01:36:09;3.17;;;2.97;;
20880;SDS011;10600;53.096;8.802;2023-04-24T01:37:11;2.75;;;2.55;;
20880;SDS011;10600;53.096;8.802;2023-04-24T01:38:12;3.05;;;2.75;;
20880;SDS011;10600;53.096;8.802;2023-04-24T01:39:12;4.63;;;2.83;;
20880;SDS011;10600;53.096;8.802;2023-04-24T01:40:13;2.60;;;2.28;;
20880;SDS011;10600;53.096;8.802;2023-04-24T01:41:14;3.35;;;2.50;;
20880;SDS011;10600;53.096;8.802;2023-04-24T01:42:15;3.00;;;2.70;;
20880;SDS011;10600;53.096;8.802;2023-04-24T01:43:16;2.92;;;2.63;;
20880;SDS011;10600;53.096;8.802;2023-04-24T01:44:18;3.28;;;2.97;;
20880;SDS011;10600;53.096;8.802;2023-04-24T01:45:18;3.17;;;2.95;;
20880;SDS011;10600;53.096;8.802;2023-04-24T01:46:19;3.25;;;2.53;;
20880;SDS011;10600;53.096;8.802;2023-04-24T01:47:20;2.92;;;2.72;;
20880;SDS011;10600;53.096;8.802;2023-04-24T01:48:21;2.70;;;2.50;;
20880;SDS011;10600;53.096;8.802;2023-04-24T01:49:22;3.42;;;3.13;;
20880;SDS011;10600;53.096;8.802;2023-04-24T01:50:23;3.38;;;2.72;;
20880;SDS011;10600;53.096;8.802;2023-04-24T01:51:24;3.53;;;2.80;;
20880;SDS011;10600;53.096;8.802;2023-04-24T01:52:24;3.58;;;2.67;;
20880;SDS011;10600;53.096;8.802;2023-04-24T01:53:25;4.03;;;2.65;;
20880;SDS011;10600;53.096;8.802;2023-04-24T01:54:26;4.32;;;2.65;;
20880;SDS011;10600;53.096;8.802;2023-04-24T01:55:27;3.67;;;3.00;;
20880;SDS011;10600;53.096;8.802;2023-04-24T01:56:31;6.68;;;3.38;;
20880;SDS011;10600;53.096;8.802;2023-04-24T01:57:35;3.08;;;2.78;;
20880;SDS011;10600;53.096;8.802;2023-04-24T01:58:36;3.47;;;3.17;;
20880;SDS011;10600;53.096;8.802;2023-04-24T01:59:37;3.40;;;2.97;;
20880;SDS011;10600;53.096;8.802;2023-04-24T02:00:38;4.35;;;3.30;;
20880;SDS011;10600;53.096;8.802;2023-04-24T02:01:38;3.20;;;2.90;;
20880;SDS011;10600;53.096;8.802;2023-04-24T02:02:40;3.30;;;3.00;;
20880;SDS011;10600;53.096;8.802;2023-04-24T02:03:41;2.92;;;2.72;;
20880;SDS011;10600;53.096;8.802;2023-04-24T02:04:41;4.18;;;2.95;;
20880;SDS011;10600;53.096;8.802;2023-04-24T02:05:43;3.78;;;3.17;;
20880;SDS011;10600;53.096;8.802;2023-04-24T02:06:45;3.05;;;2.80;;
20880;SDS011;10600;53.096;8.802;2023-04-24T02:07:45;4.03;;;3.35;;
20880;SDS011;10600;53.096;8.802;2023-04-24T02:08:46;2.92;;;2.72;;
20880;SDS011;10600;53.096;8.802;2023-04-24T02:09:47;3.60;;;2.92;;
20880;SDS011;10600;53.096;8.802;2023-04-24T02:10:47;2.97;;;2.67;;
20880;SDS011;10600;53.096;8.802;2023-04-24T02:11:48;4.47;;;3.17;;
20880;SDS011;10600;53.096;8.802;2023-04-24T02:12:49;3.65;;;3.30;;
20880;SDS011;10600;53.096;8.802;2023-04-24T02:13:50;3.15;;;2.85;;
20880;SDS011;10600;53.096;8.802;2023-04-24T02:14:51;2.90;;;2.60;;
20880;SDS011;10600;53.096;8.802;2023-04-24T02:15:52;4.60;;;3.10;;
20880;SDS011;10600;53.096;8.802;2023-04-24T02:16:52;3.13;;;2.60;;
20880;SDS011;10600;53.096;8.802;2023-04-24T02:17:53;3.22;;;2.92;;
20880;SDS011;10600;53.096;8.802;2023-04-24T02:18:53;4.38;;;2.70;;
20880;SDS011;10600;53.096;8.802;2023-04-24T02:19:54;3.17;;;2.88;;
20880;SDS011;10600;53.096;8.802;2023-04-24T02:20:55;4.18;;;3.00;;
20880;SDS011;10600;53.096;8.802;2023-04-24T02:21:56;3.38;;;2.75;;
20880;SDS011;10600;53.096;8.802;2023-04-24T02:22:56;3.58;;;3.13;;
20880;SDS011;10600;53.096;8.802;2023-04-24T02:23:57;3.97;;;3.55;;
20880;SDS011;10600;53.096;8.802;2023-04-24T02:24:58;4.40;;;3.20;;
20880;SDS011;10600;53.096;8.802;2023-04-24T02:25:58;3.40;;;3.10;;
20880;SDS011;10600;53.096;8.802;2023-04-24T02:26:59;3.55;;;3.25;;
20880;SDS011;10600;53.096;8.802;2023-04-24T02:28:00;3.45;;;2.92;;
20880;SDS011;10600;53.096;8.802;2023-04-24T02:29:00;2.90;;;2.70;;
20880;SDS011;10600;53.096;8.802;2023-04-24T02:30:01;3.42;;;3.13;;
20880;SDS011;10600;53.096;8.802;2023-04-24T02:31:03;3.60;;;3.20;;
20880;SDS011;10600;53.096;8.802;2023-04-24T02:32:03;3.75;;;3.47;;
20880;SDS011;10600;53.096;8.802;2023-04-24T02:33:04;3.55;;;3.25;;
20880;SDS011;10600;53.096;8.802;2023-04-24T02:34:05;3.90;;;3.60;;
20880;SDS011;10600;53.096;8.802;2023-04-24T02:35:05;4.10;;;3.72;;
20880;SDS011;10600;53.096;8.802;2023-04-24T02:36:06;4.85;;;4.03;;
20880;SDS011;10600;53.096;8.802;2023-04-24T02:37:07;5.35;;;4.15;;
20880;SDS011;10600;53.096;8.802;2023-04-24T02:38:08;4.82;;;4.15;;
20880;SDS011;10600;53.096;8.802;2023-04-24T02:39:08;5.20;;;4.60;;
20880;SDS011;10600;53.096;8.802;2023-04-24T02:40:09;5.30;;;4.80;;
20880;SDS011;10600;53.096;8.802;2023-04-24T02:41:10;6.65;;;4.38;;
20880;SDS011;10600;53.096;8.802;2023-04-24T02:42:10;4.57;;;4.18;;
20880;SDS011;10600;53.096;8.802;2023-04-24T02:43:11;4.80;;;4.40;;
20880;SDS011;10600;53.096;8.802;2023-04-24T02:44:11;5.88;;;5.00;;
20880;SDS011;10600;53.096;8.802;2023-04-24T02:45:12;5.55;;;4.95;;
20880;SDS011;10600;53.096;8.802;2023-04-24T02:46:13;5.20;;;4.70;;
20880;SDS011;10600;53.096;8.802;2023-04-24T02:47:13;5.55;;;4.95;;
20880;SDS011;10600;53.096;8.802;2023-04-24T02:48:14;5.80;;;5.22;;
20880;SDS011;10600;53.096;8.802;2023-04-24T02:49:15;5.15;;;4.70;;
20880;SDS011;10600;53.096;8.802;2023-04-24T02:50:15;5.20;;;4.80;;
20880;SDS011;10600;53.096;8.802;2023-04-24T02:51:16;5.35;;;4.85;;
20880;SDS011;10600;53.096;8.802;2023-04-24T02:52:17;5.97;;;4.63;;
20880;SDS011;10600;53.096;8.802;2023-04-24T02:53:17;5.93;;;5.32;;
20880;SDS011;10600;53.096;8.802;2023-04-24T02:54:18;6.88;;;5.50;;
20880;SDS011;10600;53.096;8.802;2023-04-24T02:55:19;5.40;;;4.85;;
20880;SDS011;10600;53.096;8.802;2023-04-24T02:56:19;7.90;;;5.50;;
20880;SDS011;10600;53.096;8.802;2023-04-24T02:57:20;6.40;;;5.10;;
20880;SDS011;10600;53.096;8.802;2023-04-24T02:58:21;5.82;;;5.30;;
20880;SDS011;10600;53.096;8.802;2023-04-24T02:59:22;7.25;;;4.97;;
20880;SDS011;10600;53.096;8.802;2023-04-24T03:00:22;6.25;;;5.65;;
20880;SDS011;10600;53.096;8.802;2023-04-24T03:01:23;6.75;;;5.90;;
20880;SDS011;10600;53.096;8.802;2023-04-24T03:02:24;6.10;;;4.90;;
20880;SDS011;10600;53.096;8.802;2023-04-24T03:03:24;5.88;;;5.28;;
20880;SDS011;10600;53.096;8.802;2023-04-24T03:04:25;6.47;;;5.20;;
20880;SDS011;10600;53.096;8.802;2023-04-24T03:05:26;6.07;;;5.47;;
20880;SDS011;10600;53.096;8.802;2023-04-24T03:06:27;6.05;;;5.55;;
20880;SDS011;10600;53.096;8.802;2023-04-24T03:07:28;6.50;;;5.82;;
20880;SDS011;10600;53.096;8.802;2023-04-24T03:08:28;6.75;;;5.35;;
20880;SDS011;10600;53.096;8.802;2023-04-24T03:09:29;5.97;;;5.38;;
20880;SDS011;10600;53.096;8.802;2023-04-24T03:10:29;6.43;;;5.40;;
20880;SDS011;10600;53.096;8.802;2023-04-24T03:11:30;5.78;;;5.28;;
20880;SDS011;10600;53.096;8.802;2023-04-24T03:12:31;6.05;;;5.30;;
20880;SDS011;10600;53.096;8.802;2023-04-24T03:13:31;5.68;;;5.18;;
20880;SDS011;10600;53.096;8.802;2023-04-24T03:14:32;6.63;;;5.88;;
20880;SDS011;10600;53.096;8.802;2023-04-24T03:15:33;7.75;;;6.05;;
20880;SDS011;10600;53.096;8.802;2023-04-24T03:16:33;5.93;;;5.43;;
20880;SDS011;10600;53.096;8.802;2023-04-24T03:17:34;6.60;;;5.90;;
20880;SDS011;10600;53.096;8.802;2023-04-24T03:18:35;6.00;;;5.50;;
20880;SDS011;10600;53.096;8.802;2023-04-24T03:19:35;6.35;;;5.05;;
20880;SDS011;10600;53.096;8.802;2023-04-24T03:20:36;7.55;;;6.07;;
20880;SDS011;10600;53.096;8.802;2023-04-24T03:21:37;6.28;;;5.47;;
20880;SDS011;10600;53.096;8.802;2023-04-24T03:22:40;7.60;;;5.80;;
20880;SDS011;10600;53.096;8.802;2023-04-24T03:23:41;7.00;;;5.50;;
20880;SDS011;10600;53.096;8.802;2023-04-24T03:24:41;6.05;;;5.45;;
20880;SDS011;10600;53.096;8.802;2023-04-24T03:25:42;6.10;;;5.30;;
20880;SDS011;10600;53.096;8.802;2023-04-24T03:26:42;6.30;;;5.40;;
20880;SDS011;10600;53.096;8.802;2023-04-24T03:27:43;6.10;;;5.55;;
20880;SDS011;10600;53.096;8.802;2023-04-24T03:28:44;6.35;;;5.72;;
20880;SDS011;10600;53.096;8.802;2023-04-24T03:29:45;5.93;;;4.75;;
20880;SDS011;10600;53.096;8.802;2023-04-24T03:30:45;6.28;;;5.35;;
20880;SDS011;10600;53.096;8.802;2023-04-24T03:31:46;5.55;;;5.00;;
20880;SDS011;10600;53.096;8.802;2023-04-24T03:32:47;5.85;;;4.85;;
20880;SDS011;10600;53.096;8.802;2023-04-24T03:33:48;6.55;;;4.82;;
20880;SDS011;10600;53.096;8.802;2023-04-24T03:34:49;5.75;;;5.25;;
20880;SDS011;10600;53.096;8.802;2023-04-24T03:35:50;6.13;;;4.70;;
20880;SDS011;10600;53.096;8.802;2023-04-24T03:36:50;5.93;;;4.75;;
20880;SDS011;10600;53.096;8.802;2023-04-24T03:37:52;6.47;;;4.85;;
20880;SDS011;10600;53.096;8.802;2023-04-24T03:38:53;7.25;;;5.18;;
20880;SDS011;10600;53.096;8.802;2023-04-24T03:39:53;5.50;;;4.88;;
20880;SDS011;10600;53.096;8.802;2023-04-24T03:40:54;5.40;;;4.80;;
20880;SDS011;10600;53.096;8.802;2023-04-24T03:41:55;7.43;;;5.05;;
20880;SDS011;10600;53.096;8.802;2023-04-24T03:42:55;5.13;;;4.65;;
20880;SDS011;10600;53.096;8.802;2023-04-24T03:43:56;6.82;;;4.68;;
20880;SDS011;10600;53.096;8.802;2023-04-24T03:44:57;5.30;;;4.32;;
20880;SDS011;10600;53.096;8.802;2023-04-24T03:45:57;6.07;;;4.40;;
20880;SDS011;10600;53.096;8.802;2023-04-24T03:46:58;4.70;;;4.10;;
20880;SDS011;10600;53.096;8.802;2023-04-24T03:47:58;5.35;;;4.85;;
20880;SDS011;10600;53.096;8.802;2023-04-24T03:48:59;4.75;;;4.20;;
20880;SDS011;10600;53.096;8.802;2023-04-24T03:50:00;4.45;;;3.90;;
20880;SDS011;10600;53.096;8.802;2023-04-24T03:51:01;4.75;;;3.90;;
20880;SDS011;10600;53.096;8.802;2023-04-24T03:52:01;5.80;;;4.18;;
20880;SDS011;10600;53.096;8.802;2023-04-24T03:53:02;5.53;;;4.03;;
20880;SDS011;10600;53.096;8.802;2023-04-24T03:54:03;5.68;;;4.53;;
20880;SDS011;10600;53.096;8.802;2023-04-24T03:55:04;4.78;;;4.28;;
20880;SDS011;10600;53.096;8.802;2023-04-24T03:56:06;4.60;;;4.20;;
20880;SDS011;10600;53.096;8.802;2023-04-24T03:57:07;6.15;;;4.47;;
20880;SDS011;10600;53.096;8.802;2023-04-24T03:58:07;5.30;;;4.00;;
20880;SDS011;10600;53.096;8.802;2023-04-24T03:59:08;5.85;;;4.22;;
20880;SDS011;10600;53.096;8.802;2023-04-24T04:00:09;4.40;;;3.47;;
20880;SDS011;10600;53.096;8.802;2023-04-24T04:01:10;5.05;;;4.00;;
20880;SDS011;10600;53.096;8.802;2023-04-24T04:02:11;5.20;;;4.15;;
20880;SDS011;10600;53.096;8.802;2023-04-24T04:03:12;7.88;;;4.50;;
20880;SDS011;10600;53.096;8.802;2023-04-24T04:04:14;5.93;;;3.80;;
20880;SDS011;10600;53.096;8.802;2023-04-24T04:05:15;6.05;;;4.05;;
20880;SDS011;10600;53.096;8.802;2023-04-24T04:06:15;4.32;;;3.78;;
20880;SDS011;10600;53.096;8.802;2023-04-24T04:07:16;6.85;;;3.97;;
20880;SDS011;10600;53.096;8.802;2023-04-24T04:08:17;4.68;;;4.28;;
20880;SDS011;10600;53.096;8.802;2023-04-24T04:09:17;4.20;;;3.65;;
20880;SDS011;10600;53.096;8.802;2023-04-24T04:10:18;6.10;;;4.10;;
20880;SDS011;10600;53.096;8.802;2023-04-24T04:11:19;6.10;;;3.90;;
20880;SDS011;10600;53.096;8.802;2023-04-24T04:12:20;4.95;;;3.75;;
20880;SDS011;10600;53.096;8.802;2023-04-24T04:13:21;5.25;;;4.05;;
20880;SDS011;10600;53.096;8.802;2023-04-24T04:14:21;5.35;;;3.55;;
20880;SDS011;10600;53.096;8.802;2023-04-24T04:15:23;5.47;;;3.55;;
20880;SDS011;10600;53.096;8.802;2023-04-24T04:16:23;3.95;;;3.65;;
20880;SDS011;10600;53.096;8.802;2023-04-24T04:17:24;6.28;;;3.75;;
20880;SDS011;10600;53.096;8.802;2023-04-24T04:18:25;4.72;;;3.60;;
20880;SDS011;10600;53.096;8.802;2023-04-24T04:19:25;5.00;;;4.07;;
20880;SDS011;10600;53.096;8.802;2023-04-24T04:20:26;4.88;;;3.83;;
20880;SDS011;10600;53.096;8.802;2023-04-24T04:21:27;5.80;;;4.00;;
20880;SDS011;10600;53.096;8.802;2023-04-24T04:22:27;4.18;;;3.78;;
20880;SDS011;10600;53.096;8.802;2023-04-24T04:23:28;3.90;;;3.47;;
20880;SDS011;10600;53.096;8.802;2023-04-24T04:24:29;5.82;;;4.05;;
20880;SDS011;10600;53.096;8.802;2023-04-24T04:25:32;4.45;;;3.70;;
20880;SDS011;10600;53.096;8.802;2023-04-24T04:26:33;5.70;;;4.38;;
20880;SDS011;10600;53.096;8.802;2023-04-24T04:27:35;4.50;;;3.90;;
20880;SDS011;10600;53.096;8.802;2023-04-24T04:28:36;4.50;;;4.05;;
20880;SDS011;10600;53.096;8.802;2023-04-24T04:29:37;5.10;;;4.00;;
20880;SDS011;10600;53.096;8.802;2023-04-24T04:30:39;4.90;;;4.32;;
20880;SDS011;10600;53.096;8.802;2023-04-24T04:31:41;4.80;;;3.85;;
20880;SDS011;10600;53.096;8.802;2023-04-24T04:32:42;6.20;;;4.10;;
20880;SDS011;10600;53.096;8.802;2023-04-24T04:33:48;4.35;;;3.95;;
20880;SDS011;10600;53.096;8.802;2023-04-24T04:34:49;5.57;;;4.10;;
20880;SDS011;10600;53.096;8.802;2023-04-24T04:35:53;6.55;;;4.20;;
20880;SDS011;10600;53.096;8.802;2023-04-24T04:36:56;4.22;;;3.67;;
20880;SDS011;10600;53.096;8.802;2023-04-24T04:38:01;4.15;;;3.75;;
20880;SDS011;10600;53.096;8.802;2023-04-24T04:39:02;5.43;;;4.47;;
20880;SDS011;10600;53.096;8.802;2023-04-24T04:40:04;7.22;;;4.20;;
20880;SDS011;10600;53.096;8.802;2023-04-24T04:41:11;4.75;;;3.63;;
20880;SDS011;10600;53.096;8.802;2023-04-24T04:42:12;5.50;;;3.80;;
20880;SDS011;10600;53.096;8.802;2023-04-24T04:43:13;5.18;;;3.70;;
20880;SDS011;10600;53.096;8.802;2023-04-24T04:44:15;4.93;;;3.40;;
20880;SDS011;10600;53.096;8.802;2023-04-24T04:45:15;4.40;;;3.70;;
20880;SDS011;10600;53.096;8.802;2023-04-24T04:46:16;4.00;;;3.60;;
20880;SDS011;10600;53.096;8.802;2023-04-24T04:47:17;6.28;;;4.15;;
20880;SDS011;10600;53.096;8.802;2023-04-24T04:48:19;5.43;;;4.28;;
20880;SDS011;10600;53.096;8.802;2023-04-24T04:49:20;5.55;;;3.95;;
20880;SDS011;10600;53.096;8.802;2023-04-24T04:50:21;4.35;;;3.88;;
20880;SDS011;10600;53.096;8.802;2023-04-24T04:51:22;4.93;;;3.88;;
20880;SDS011;10600;53.096;8.802;2023-04-24T04:52:23;5.10;;;4.07;;
20880;SDS011;10600;53.096;8.802;2023-04-24T04:53:25;5.40;;;3.75;;
20880;SDS011;10600;53.096;8.802;2023-04-24T04:54:26;4.65;;;3.60;;
20880;SDS011;10600;53.096;8.802;2023-04-24T04:55:27;4.85;;;3.70;;
20880;SDS011;10600;53.096;8.802;2023-04-24T04:56:28;5.15;;;3.30;;
20880;SDS011;10600;53.096;8.802;2023-04-24T04:57:28;4.22;;;3.80;;
20880;SDS011;10600;53.096;8.802;2023-04-24T04:58:30;3.67;;;3.28;;
20880;SDS011;10600;53.096;8.802;2023-04-24T04:59:30;3.70;;;3.30;;
20880;SDS011;10600;53.096;8.802;2023-04-24T05:00:31;4.40;;;3.22;;
20880;SDS011;10600;53.096;8.802;2023-04-24T05:01:35;4.28;;;3.28;;
20880;SDS011;10600;53.096;8.802;2023-04-24T05:02:36;4.00;;;3.58;;
20880;SDS011;10600;53.096;8.802;2023-04-24T05:03:37;4.43;;;4.03;;
20880;SDS011;10600;53.096;8.802;2023-04-24T05:04:37;3.97;;;3.20;;
20880;SDS011;10600;53.096;8.802;2023-04-24T05:05:38;4.90;;;3.53;;
20880;SDS011;10600;53.096;8.802;2023-04-24T05:06:40;5.88;;;3.50;;
20880;SDS011;10600;53.096;8.802;2023-04-24T05:07:41;6.38;;;3.38;;
20880;SDS011;10600;53.096;8.802;2023-04-24T05:08:42;3.67;;;3.17;;
20880;SDS011;10600;53.096;8.802;2023-04-24T05:09:42;4.25;;;3.72;;
20880;SDS011;10600;53.096;8.802;2023-04-24T05:10:44;3.80;;;3.30;;
20880;SDS011;10600;53.096;8.802;2023-04-24T05:11:45;4.88;;;3.55;;
20880;SDS011;10600;53.096;8.802;2023-04-24T05:12:46;4.43;;;3.13;;
20880;SDS011;10600;53.096;8.802;2023-04-24T05:13:47;3.83;;;3.45;;
20880;SDS011;10600;53.096;8.802;2023-04-24T05:14:47;4.43;;;3.33;;
20880;SDS011;10600;53.096;8.802;2023-04-24T05:15:48;4.38;;;3.70;;
20880;SDS011;10600;53.096;8.802;2023-04-24T05:16:49;5.30;;;3.72;;
20880;SDS011;10600;53.096;8.802;2023-04-24T05:17:50;3.78;;;3.38;;
20880;SDS011;10600;53.096;8.802;2023-04-24T05:18:50;5.15;;;3.22;;
20880;SDS011;10600;53.096;8.802;2023-04-24T05:19:51;5.82;;;3.75;;
20880;SDS011;10600;53.096;8.802;2023-04-24T05:20:52;4.18;;;3.40;;
20880;SDS011;10600;53.096;8.802;2023-04-24T05:21:52;4.97;;;3.63;;
20880;SDS011;10600;53.096;8.802;2023-04-24T05:22:53;4.63;;;3.60;;
20880;SDS011;10600;53.096;8.802;2023-04-24T05:23:54;4.50;;;3.83;;
20880;SDS011;10600;53.096;8.802;2023-04-24T05:24:54;3.75;;;3.35;;
20880;SDS011;10600;53.096;8.802;2023-04-24T05:25:55;3.85;;;3.20;;
20880;SDS011;10600;53.096;8.802;2023-04-24T05:26:56;4.88;;;3.75;;
20880;SDS011;10600;53.096;8.802;2023-04-24T05:27:58;6.00;;;4.05;;
20880;SDS011;10600;53.096;8.802;2023-04-24T05:28:59;3.83;;;3.42;;
20880;SDS011;10600;53.096;8.802;2023-04-24T05:30:00;4.57;;;3.67;;
20880;SDS011;10600;53.096;8.802;2023-04-24T05:31:00;4.95;;;3.42;;
20880;SDS011;10600;53.096;8.802;2023-04-24T05:32:02;5.45;;;3.63;;
20880;SDS011;10600;53.096;8.802;2023-04-24T05:33:02;5.75;;;4.15;;
20880;SDS011;10600;53.096;8.802;2023-04-24T05:34:03;4.88;;;3.67;;
20880;SDS011;10600;53.096;8.802;2023-04-24T05:35:05;4.32;;;3.30;;
20880;SDS011;10600;53.096;8.802;2023-04-24T05:36:06;4.00;;;3.42;;
20880;SDS011;10600;53.096;8.802;2023-04-24T05:37:07;4.60;;;3.45;;
20880;SDS011;10600;53.096;8.802;2023-04-24T05:38:09;4.85;;;3.45;;
20880;SDS011;10600;53.096;8.802;2023-04-24T05:39:10;4.90;;;3.47;;
20880;SDS011;10600;53.096;8.802;2023-04-24T05:40:11;4.30;;;3.22;;
20880;SDS011;10600;53.096;8.802;2023-04-24T05:41:11;5.40;;;3.75;;
20880;SDS011;10600;53.096;8.802;2023-04-24T05:42:12;3.75;;;3.20;;
20880;SDS011;10600;53.096;8.802;2023-04-24T05:43:13;4.53;;;3.40;;
20880;SDS011;10600;53.096;8.802;2023-04-24T05:44:13;5.88;;;3.75;;
20880;SDS011;10600;53.096;8.802;2023-04-24T05:45:14;4.63;;;3.05;;
20880;SDS011;10600;53.096;8.802;2023-04-24T05:46:16;4.53;;;3.30;;
20880;SDS011;10600;53.096;8.802;2023-04-24T05:47:17;3.83;;;3.50;;
20880;SDS011;10600;53.096;8.802;2023-04-24T05:48:17;4.47;;;3.60;;
20880;SDS011;10600;53.096;8.802;2023-04-24T05:49:18;4.40;;;3.53;;
20880;SDS011;10600;53.096;8.802;2023-04-24T05:50:19;4.82;;;3.67;;
20880;SDS011;10600;53.096;8.802;2023-04-24T05:51:19;4.75;;;4.07;;
20880;SDS011;10600;53.096;8.802;2023-04-24T05:52:20;6.72;;;4.00;;
20880;SDS011;10600;53.096;8.802;2023-04-24T05:53:21;6.75;;;3.70;;
20880;SDS011;10600;53.096;8.802;2023-04-24T05:54:21;5.55;;;4.18;;
20880;SDS011;10600;53.096;8.802;2023-04-24T05:55:22;5.25;;;3.75;;
20880;SDS011;10600;53.096;8.802;2023-04-24T05:56:22;4.95;;;4.10;;
20880;SDS011;10600;53.096;8.802;2023-04-24T05:57:23;7.18;;;4.43;;
20880;SDS011;10600;53.096;8.802;2023-04-24T05:58:24;5.32;;;4.40;;
20880;SDS011;10600;53.096;8.802;2023-04-24T05:59:25;5.82;;;4.32;;
20880;SDS011;10600;53.096;8.802;2023-04-24T06:00:26;5.72;;;4.60;;
20880;SDS011;10600;53.096;8.802;2023-04-24T06:01:26;5.43;;;4.72;;
20880;SDS011;10600;53.096;8.802;2023-04-24T06:02:27;5.25;;;4.75;;
20880;SDS011;10600;53.096;8.802;2023-04-24T06:03:32;6.70;;;4.72;;
20880;SDS011;10600;53.096;8.802;2023-04-24T06:04:32;6.65;;;5.00;;
20880;SDS011;10600;53.096;8.802;2023-04-24T06:05:33;7.50;;;5.05;;
20880;SDS011;10600;53.096;8.802;2023-04-24T06:06:35;12.48;;;6.15;;
20880;SDS011;10600;53.096;8.802;2023-04-24T06:07:36;8.10;;;5.45;;